Time;durP1;ratioP1;P1;durP2;ratioP2;P2;SDS_P1;SDS_P2;PMS_P1;PMS_P2;Temp;Humidity;BMP_temperature;BMP_pressure;BME280_temperature;BME280_humidity;BME280_pressure;Samples;Min_cycle;Max_cycle;Signal;HPM_P1;HPM_P2
2021/08/30 00:01:52;;;;;;;15.87;9.37;;;;;;;15.75;100.00;102064.47;2616763;36;20423;-67
2021/08/30 00:04:21;;;;;;;13.70;9.60;;;;;;;15.78;100.00;102063.34;2616903;36;20081;-70
2021/08/30 00:06:49;;;;;;;18.42;9.90;;;;;;;15.79;100.00;102067.78;2615648;36;20042;-67
2021/08/30 00:09:18;;;;;;;13.95;8.95;;;;;;;15.81;100.00;102062.22;2616958;36;20077;-67
2021/08/30 00:11:46;;;;;;;14.73;9.88;;;;;;;15.81;100.00;102062.22;2616519;36;20050;-68
2021/08/30 00:14:14;;;;;;;13.73;9.70;;;;;;;15.78;100.00;102066.06;2616645;36;20073;-66
2021/08/30 00:16:42;;;;;;;15.10;9.23;;;;;;;15.86;100.00;102057.22;2616359;36;20039;-69
2021/08/30 00:19:13;;;;;;;16.17;9.63;;;;;;;15.80;100.00;102063.19;2616678;36;20579;-69
2021/08/30 00:21:42;;;;;;;14.90;9.55;;;;;;;15.81;100.00;102056.78;2616543;36;20030;-67
2021/08/30 00:24:10;;;;;;;13.25;9.45;;;;;;;15.81;100.00;102062.22;2616816;31;20045;-67
2021/08/30 00:26:38;;;;;;;14.83;9.80;;;;;;;15.72;100.00;102070.19;2616196;36;20058;-66
2021/08/30 00:29:07;;;;;;;15.77;9.90;;;;;;;15.71;100.00;102068.47;2616048;36;20339;-66
2021/08/30 00:31:35;;;;;;;13.40;9.50;;;;;;;15.76;100.00;102059.88;2616200;36;20072;-68
2021/08/30 00:34:03;;;;;;;17.33;10.02;;;;;;;15.80;100.00;102057.78;2616677;36;20031;-68
2021/08/30 00:36:34;;;;;;;14.93;9.93;;;;;;;15.84;100.00;102065.50;2616146;36;20549;-67
2021/08/30 00:39:02;;;;;;;15.45;9.27;;;;;;;15.87;100.00;102069.78;2616326;36;20146;-69
2021/08/30 00:41:30;;;;;;;14.10;9.67;;;;;;;15.89;100.00;102065.09;2616568;31;20130;-70
2021/08/30 00:43:58;;;;;;;16.37;10.70;;;;;;;15.87;100.00;102069.78;2616545;31;20061;-67
2021/08/30 00:46:27;;;;;;;15.73;10.40;;;;;;;15.82;100.00;102061.22;2617119;31;20507;-67
2021/08/30 00:48:55;;;;;;;19.87;10.77;;;;;;;15.85;100.00;102063.66;2616729;36;20097;-66
2021/08/30 00:51:23;;;;;;;15.90;10.50;;;;;;;15.80;100.00;102060.47;2615950;36;20155;-67
2021/08/30 00:53:58;;;;;;;15.00;10.60;;;;;;;15.79;100.00;102053.38;2616291;36;20026;-68
2021/08/30 00:56:27;;;;;;;17.42;10.00;;;;;;;15.79;100.00;102054.22;2615832;36;20026;-67
2021/08/30 00:58:56;;;;;;;16.17;10.20;;;;;;;15.76;100.00;102055.31;2616600;36;20034;-68
2021/08/30 01:01:24;;;;;;;13.65;9.43;;;;;;;15.75;100.00;102056.31;2616478;36;20146;-67
2021/08/30 01:03:53;;;;;;;16.63;10.60;;;;;;;15.68;100.00;102057.88;2617221;36;20081;-67
2021/08/30 01:06:30;;;;;;;14.48;10.18;;;;;;;15.73;100.00;102065.59;2616638;36;20165;-68
2021/08/30 01:09:06;;;;;;;19.80;10.35;;;;;;;15.73;100.00;102061.03;2616380;36;20053;-68
2021/08/30 01:11:40;;;;;;;14.35;10.50;;;;;;;15.68;100.00;102065.16;2617011;36;20035;-68
2021/08/30 01:14:10;;;;;;;15.80;10.95;;;;;;;15.67;100.00;102063.47;2616812;36;20424;-70
2021/08/30 01:16:40;;;;;;;15.45;10.85;;;;;;;15.66;100.00;102057.16;2616421;36;20530;-69
2021/08/30 01:19:13;;;;;;;18.17;10.75;;;;;;;15.69;100.00;102064.16;2615959;36;20118;-67
2021/08/30 01:21:43;;;;;;;19.85;11.32;;;;;;;15.69;100.00;102058.72;2616766;36;20081;-68
2021/08/30 01:24:16;;;;;;;19.63;11.25;;;;;;;15.69;100.00;102059.56;2616829;36;20054;-68
2021/08/30 01:26:48;;;;;;;17.00;11.25;;;;;;;15.69;100.00;102059.56;2616412;36;20089;-69
2021/08/30 01:29:23;;;;;;;18.30;10.98;;;;;;;15.64;100.00;102064.59;2616542;36;20166;-68
2021/08/30 01:31:57;;;;;;;16.55;11.20;;;;;;;15.62;100.00;102071.16;2617006;36;20093;-67
2021/08/30 01:34:30;;;;;;;16.63;11.32;;;;;;;15.69;100.00;102075.03;2615965;36;20057;-66
2021/08/30 01:36:59;;;;;;;19.38;11.43;;;;;;;15.75;100.00;102069.03;2616352;36;20061;-68
2021/08/30 01:39:30;;;;;;;20.90;11.93;;;;;;;15.72;100.00;102067.47;2617234;31;20530;-69
2021/08/30 01:42:00;;;;;;;15.55;10.93;;;;;;;15.72;100.00;102070.19;2616903;36;20034;-68
2021/08/30 01:44:29;;;;;;;16.65;10.82;;;;;;;15.66;100.00;102070.72;2614016;36;20027;-69
2021/08/30 01:46:58;;;;;;;16.45;10.65;;;;;;;15.68;100.00;102068.75;2617042;36;20074;-67
2021/08/30 01:49:31;;;;;;;16.00;10.45;;;;;;;15.71;100.00;102054.88;2616516;36;20112;-68
2021/08/30 01:52:00;;;;;;;18.15;12.07;;;;;;;15.62;100.00;102047.59;2617203;36;20042;-68
2021/08/30 01:54:28;;;;;;;;;;;;;;;15.63;100.00;102049.28;2617398;36;20469;-67
2021/08/30 01:56:58;;;;;;;16.52;11.73;;;;;;;15.61;100.00;102043.16;2617517;31;20435;-68
2021/08/30 02:02:10;;;;;;;16.45;11.05;;;;;;;15.53;100.00;102053.84;2616210;36;20531;-67
2021/08/30 02:04:41;;;;;;;20.48;12.02;;;;;;;15.49;100.00;102055.09;2616696;36;20026;-68
2021/08/30 02:07:09;;;;;;;18.17;12.73;;;;;;;15.49;100.00;102058.69;2616417;36;20031;-68
2021/08/30 02:09:37;;;;;;;23.30;12.60;;;;;;;15.56;100.00;102059.88;2616544;36;20162;-67
2021/08/30 02:12:07;;;;;;;23.10;13.10;;;;;;;15.56;100.00;102069.84;2615935;36;20058;-68
2021/08/30 02:14:35;;;;;;;;;;;;;;;15.57;100.00;102064.28;2616645;36;20037;-67
2021/08/30 02:17:07;;;;;;;18.92;12.75;;;;;;;15.59;100.00;102073.16;2616814;36;20067;-68
2021/08/30 02:19:46;;;;;;;20.17;12.65;;;;;;;15.59;100.00;102069.56;2616526;36;20083;-67
2021/08/30 02:22:18;;;;;;;19.40;13.88;;;;;;;15.59;100.00;102070.44;2615939;31;20858;-66
2021/08/30 02:24:50;;;;;;;18.45;13.25;;;;;;;15.62;100.00;102063.00;2616768;36;20043;-67
2021/08/30 02:27:23;;;;;;;23.38;12.90;;;;;;;15.57;100.00;102058.00;2616780;36;20126;-67
2021/08/30 02:29:55;;;;;;;21.92;14.82;;;;;;;15.58;100.00;102062.44;2616478;36;20137;-67
2021/08/30 02:32:24;;;;;;;21.35;14.07;;;;;;;15.62;100.00;102063.88;2615980;31;20061;-67
2021/08/30 02:34:58;;;;;;;22.90;14.43;;;;;;;15.59;100.00;102058.69;2616385;36;20069;-69
2021/08/30 02:37:28;;;;;;;26.42;15.73;;;;;;;15.64;100.00;102059.16;2616108;36;20038;-66
2021/08/30 03:43:48;;;;;;;29.90;17.08;;;;;;;15.96;100.00;102049.94;2615881;54;20057;-67
2021/08/30 03:46:16;;;;;;;26.80;16.20;;;;;;;15.97;100.00;102051.63;2617581;31;20085;-67
2021/08/30 03:48:45;;;;;;;29.85;17.30;;;;;;;15.94;100.00;102051.94;2618344;31;20142;-70
2021/08/30 03:51:13;;;;;;;;;;;;;;;15.96;100.00;102043.63;2618007;36;20030;-68
2021/08/30 03:53:44;;;;;;;30.55;17.73;;;;;;;15.93;100.00;102034.78;2617708;36;20048;-69
2021/08/30 03:56:12;;;;;;;26.33;16.73;;;;;;;15.98;100.00;102042.50;2616351;31;20073;-67
2021/08/30 03:58:45;;;;;;;28.25;17.90;;;;;;;16.00;100.00;102034.22;2618213;36;20715;-68
2021/08/30 04:01:23;;;;;;;24.65;16.45;;;;;;;16.02;100.00;102029.47;2618647;36;20027;-69
2021/08/30 04:03:52;;;;;;;28.13;16.63;;;;;;;16.02;100.00;102030.38;2617731;36;20057;-67
2021/08/30 04:06:22;;;;;;;23.58;15.70;;;;;;;16.06;100.00;102034.50;2618095;36;20065;-67
2021/08/30 04:08:51;;;;;;;30.02;16.27;;;;;;;16.05;100.00;102032.78;2617533;36;20030;-67
2021/08/30 04:11:20;;;;;;;28.85;17.85;;;;;;;16.04;100.00;102035.66;2617709;36;20049;-68
2021/08/30 04:13:48;;;;;;;27.85;17.65;;;;;;;16.02;100.00;102032.19;2616945;36;20130;-68
2021/08/30 04:16:19;;;;;;;39.42;17.92;;;;;;;16.03;100.00;102032.09;2616473;36;20085;-67
2021/08/30 04:18:48;;;;;;;28.23;18.55;;;;;;;16.10;100.00;102032.34;2617780;36;20034;-68
2021/08/30 04:21:16;;;;;;;32.47;18.25;;;;;;;16.16;100.00;102033.63;2617882;36;20073;-69
2021/08/30 04:23:44;;;;;;;30.60;18.47;;;;;;;16.08;100.00;102040.66;2616746;36;20030;-67
2021/08/30 04:26:12;;;;;;;31.70;18.33;;;;;;;16.17;100.00;102035.38;2616063;31;20046;-68
2021/08/30 04:28:40;;;;;;;31.17;18.47;;;;;;;16.18;100.00;102031.63;2618319;36;20026;-67
2021/08/30 04:31:09;;;;;;;32.43;18.97;;;;;;;16.18;100.00;102039.78;2618408;31;20448;-67
2021/08/30 04:33:39;;;;;;;33.78;19.75;;;;;;;16.16;100.00;102030.94;2617648;36;20140;-69
2021/08/30 04:36:09;;;;;;;35.33;19.80;;;;;;;16.16;100.00;102033.63;2614355;36;20049;-68
2021/08/30 04:38:37;;;;;;;34.55;20.33;;;;;;;16.18;100.00;102042.50;2615700;36;20030;-67
2021/08/30 04:41:06;;;;;;;40.50;20.60;;;;;;;16.17;100.00;102052.50;2615650;36;20145;-69
2021/08/30 04:43:34;;;;;;;40.50;20.63;;;;;;;16.16;100.00;102049.94;2615690;36;20084;-67
2021/08/30 04:46:02;;;;;;;30.37;19.70;;;;;;;16.22;100.00;102052.06;2617540;31;20466;-66
2021/08/30 04:48:30;;;;;;;36.20;20.70;;;;;;;16.21;100.00;102056.66;2616310;36;20054;-69
2021/08/30 04:51:01;;;;;;;39.20;21.63;;;;;;;16.23;100.00;102051.94;2615717;36;20061;-67
2021/08/30 04:53:29;;;;;;;40.15;21.83;;;;;;;16.25;100.00;102046.34;2616644;36;20031;-69
2021/08/30 04:55:58;;;;;;;41.37;21.93;;;;;;;16.23;100.00;102051.06;2616335;36;20176;-68
2021/08/30 04:58:26;;;;;;;38.88;20.40;;;;;;;16.23;100.00;102051.06;2616024;36;20590;-68
2021/08/30 05:00:55;;;;;;;33.47;20.07;;;;;;;16.23;100.00;102045.66;2616963;36;20035;-68
2021/08/30 05:03:23;;;;;;;39.55;21.92;;;;;;;16.19;100.00;102049.66;2615857;36;20295;-67
2021/08/30 05:05:51;;;;;;;35.43;21.63;;;;;;;16.19;100.00;102055.94;2616328;36;20125;-67
2021/08/30 05:10:55;;;;;;;35.63;19.70;;;;;;;16.23;100.00;102064.66;2614996;36;20022;-66
2021/08/30 05:13:24;;;;;;;39.20;22.23;;;;;;;16.22;100.00;102066.50;2617303;36;20118;-67
2021/08/30 05:15:52;;;;;;;37.33;19.95;;;;;;;16.24;100.00;102064.50;2616069;36;20061;-67
2021/08/30 05:18:20;;;;;;;35.10;19.23;;;;;;;16.22;100.00;102055.63;2617154;36;20161;-68
2021/08/30 05:20:49;;;;;;;36.10;20.70;;;;;;;16.18;100.00;102067.81;2616525;36;20897;-67
2021/08/30 05:23:18;;;;;;;39.55;21.67;;;;;;;16.22;100.00;102068.38;2617111;36;20034;-68
2021/08/30 05:25:46;;;;;;;31.50;18.93;;;;;;;16.24;100.00;102066.38;2616528;36;20062;-67
2021/08/30 05:28:17;;;;;;;30.27;18.98;;;;;;;16.29;100.00;102078.50;2616080;36;20042;-67
2021/08/30 05:30:45;;;;;;;35.15;19.13;;;;;;;16.37;100.00;102063.34;2616697;36;20434;-68
2021/08/30 05:33:14;;;;;;;34.67;18.17;;;;;;;16.33;100.00;102070.94;2616743;36;20613;-67
2021/08/30 05:35:42;;;;;;;30.25;18.23;;;;;;;16.31;100.00;102067.50;2617128;31;20780;-68
2021/08/30 05:38:10;;;;;;;35.83;19.45;;;;;;;16.34;100.00;102078.09;2615240;36;20724;-69
2021/08/30 05:40:39;;;;;;;37.10;19.50;;;;;;;16.37;100.00;102075.09;2615977;36;20069;-68
2021/08/30 05:43:07;;;;;;;32.13;18.60;;;;;;;16.34;100.00;102086.25;2612101;36;20034;-68
2021/08/30 05:45:38;;;;;;;35.25;18.65;;;;;;;16.37;100.00;102077.81;2614645;36;20154;-67
2021/08/30 05:48:07;;;;;;;28.55;18.88;;;;;;;16.38;100.00;102093.09;2615749;36;20080;-68
2021/08/30 05:50:35;;;;;;;30.08;17.65;;;;;;;16.44;100.00;102080.78;2616032;36;20035;-66
2021/08/30 05:53:03;;;;;;;31.53;18.57;;;;;;;16.48;100.00;102086.81;2616183;36;20034;-68
2021/08/30 05:58:21;;;;;;;31.08;18.27;;;;;;;16.54;100.00;102080.78;2614136;36;20146;-66
2021/08/30 06:00:52;;;;;;;29.75;17.38;;;;;;;16.50;100.00;102079.34;2614396;36;20030;-67
2021/08/30 06:03:20;;;;;;;32.80;17.70;;;;;;;16.67;100.00;102078.63;2615790;36;20073;-68
2021/08/30 06:05:48;;;;;;;27.93;17.00;;;;;;;16.70;100.00;102082.91;2615497;36;20074;-67
2021/08/30 06:08:17;;;;;;;36.20;18.05;;;;;;;16.74;100.00;102087.91;2613791;36;20137;-68
2021/08/30 06:10:45;;;;;;;;;;;;;;;16.70;100.00;102091.91;2615035;36;20065;-68
2021/08/30 06:13:13;;;;;;;29.67;18.35;;;;;;;16.75;100.00;102094.19;2615937;36;20046;-68
2021/08/30 06:15:42;;;;;;;35.47;18.23;;;;;;;16.76;100.00;102091.31;2614881;36;20022;-68
2021/08/30 06:18:13;;;;;;;30.33;19.27;;;;;;;16.77;100.00;102098.47;2617570;31;20531;-67
2021/08/30 06:20:41;;;;;;;31.13;18.25;;;;;;;16.75;100.00;102094.19;2615907;31;20511;-67
2021/08/30 06:23:09;;;;;;;29.92;17.05;;;;;;;16.70;100.00;102097.34;2616280;36;20030;-67
2021/08/30 06:25:37;;;;;;;28.00;18.07;;;;;;;16.73;100.00;102097.06;2615692;36;20077;-67
2021/08/30 06:28:06;;;;;;;33.53;18.17;;;;;;;16.82;100.00;102100.75;2616285;36;20034;-66
2021/08/30 06:30:35;;;;;;;29.40;17.50;;;;;;;16.85;100.00;102105.06;2616109;36;20605;-68
2021/08/30 06:33:03;;;;;;;27.58;17.80;;;;;;;16.88;100.00;102104.78;2615917;36;20023;-69
2021/08/30 06:35:37;;;;;;;31.52;17.92;;;;;;;16.92;100.00;102101.63;2616497;36;20030;-67
2021/08/30 06:38:05;;;;;;;31.38;17.48;;;;;;;17.09;100.00;102091.84;2615823;36;20539;-67
2021/08/30 06:40:33;;;;;;;25.57;17.10;;;;;;;17.15;100.00;102091.25;2615986;36;20085;-67
2021/08/30 06:43:01;;;;;;;26.90;16.47;;;;;;;17.31;100.00;102090.59;2614652;31;20113;-67
2021/08/30 06:45:29;;;;;;;34.10;17.00;;;;;;;17.43;100.00;102085.81;2615462;36;20035;-68
2021/08/30 06:47:58;;;;;;;26.20;15.90;;;;;;;17.41;100.00;102086.97;2616313;31;20533;-66
2021/08/30 06:50:27;;;;;;;24.08;14.75;;;;;;;17.46;100.00;102084.63;2616910;31;20151;-66
2021/08/30 06:52:58;;;;;;;25.27;16.20;;;;;;;17.33;100.00;102085.00;2611676;36;20054;-67
2021/08/30 06:55:26;;;;;;;32.08;16.10;;;;;;;17.22;100.00;102093.38;2614887;36;20161;-66
2021/08/30 06:57:55;;;;;;;26.70;15.57;;;;;;;17.32;100.00;102091.44;2616601;31;20526;-65
2021/08/30 07:00:23;;;;;;;26.60;14.73;;;;;;;17.41;100.00;102100.56;2616514;31;20503;-68
2021/08/30 07:02:51;;;;;;;24.43;15.73;;;;;;;17.42;100.00;102097.72;2615900;36;20089;-66
2021/08/30 07:05:19;;;;;;;24.37;15.20;;;;;;;17.45;100.00;102097.41;2615289;31;20295;-67
2021/08/30 07:07:48;;;;;;;25.10;14.83;;;;;;;17.49;100.00;102093.38;2615675;36;20306;-66
2021/08/30 07:12:45;;;;;;;27.40;15.45;;;;;;;17.51;100.00;102101.38;2615225;36;20038;-67
2021/08/30 07:15:14;;;;;;;27.35;15.50;;;;;;;17.59;100.00;102098.75;2616243;36;20122;-67
2021/08/30 07:17:42;;;;;;;22.33;14.15;;;;;;;17.54;100.00;102095.63;2616510;36;20031;-66
2021/08/30 07:20:12;;;;;;;25.60;14.60;;;;;;;17.56;100.00;102098.19;2616415;31;20113;-68
2021/08/30 07:22:40;;;;;;;24.58;13.80;;;;;;;17.63;100.00;102102.03;2615979;36;20099;-67
2021/08/30 07:25:09;;;;;;;20.50;13.35;;;;;;;17.68;100.00;102103.31;2615619;36;20122;-67
2021/08/30 07:27:37;;;;;;;;;;;;;;;17.59;100.00;102097.91;2615747;36;20023;-68
2021/08/30 07:30:10;;;;;;;21.90;13.93;;;;;;;17.48;100.00;102101.69;2615680;31;20026;-69
2021/08/30 07:32:38;;;;;;;24.48;14.13;;;;;;;17.56;100.00;102103.66;2616133;36;20512;-67
2021/08/30 07:35:07;;;;;;;26.20;13.87;;;;;;;17.59;100.00;102100.63;2615221;36;20030;-68
2021/08/30 07:37:36;;;;;;;;;;;;;;;17.75;100.00;102111.69;2616192;31;20498;-66
2021/08/30 07:40:05;;;;;;;;;;;;;;;17.67;100.00;102104.28;2616700;36;19951;-67
2021/08/30 07:42:33;;;;;;;21.65;13.73;;;;;;;17.54;100.00;102111.13;2615563;36;20041;-67
2021/08/30 07:45:01;;;;;;;26.33;14.00;;;;;;;17.56;100.00;102098.19;2615707;36;20038;-68
2021/08/30 07:47:32;;;;;;;19.73;12.87;;;;;;;17.68;100.00;102107.88;2614847;36;20162;-68
2021/08/30 07:50:00;;;;;;;25.25;14.07;;;;;;;17.75;100.00;102111.69;2615969;36;20110;-69
2021/08/30 07:52:29;;;;;;;24.52;13.25;;;;;;;17.99;100.00;102102.09;2615203;36;20023;-67
2021/08/30 07:54:57;;;;;;;23.08;12.82;;;;;;;18.21;100.00;102101.66;2614488;36;20133;-67
2021/08/30 07:57:25;;;;;;;20.57;12.00;;;;;;;18.29;100.00;102100.03;2615830;36;20157;-69
2021/08/30 07:59:53;;;;;;;21.88;12.15;;;;;;;18.25;100.00;102104.06;2615706;36;20057;-68
2021/08/30 08:02:21;;;;;;;22.17;13.13;;;;;;;18.18;100.00;102107.44;2615493;36;20578;-69
2021/08/30 08:04:52;;;;;;;26.73;12.77;;;;;;;18.24;100.00;102107.78;2615083;36;20129;-68
2021/08/30 08:07:20;;;;;;;19.00;11.88;;;;;;;18.35;100.00;102110.28;2616501;36;20026;-67
2021/08/30 08:09:49;;;;;;;21.83;11.87;;;;;;;18.28;100.00;102120.09;2617262;31;20129;-67
2021/08/30 08:12:17;;;;;;;21.37;12.73;;;;;;;18.23;100.00;102119.69;2616845;36;20542;-68
2021/08/30 08:14:45;;;;;;;24.17;12.07;;;;;;;18.38;100.00;102115.44;2617206;36;20762;-68
2021/08/30 08:17:13;;;;;;;20.20;11.53;;;;;;;18.44;100.00;102105.78;2617369;36;20109;-68
2021/08/30 08:19:41;;;;;;;18.88;12.02;;;;;;;18.37;100.00;102108.25;2616304;36;20026;-68
2021/08/30 08:22:12;;;;;;;22.57;12.60;;;;;;;18.42;100.00;102110.50;2616649;36;20030;-68
2021/08/30 08:24:40;;;;;;;20.40;12.15;;;;;;;18.68;100.00;102100.53;2616173;36;20108;-68
2021/08/30 08:27:09;;;;;;;22.07;11.60;;;;;;;19.05;100.00;102101.28;2615639;31;20118;-69
2021/08/30 08:29:37;;;;;;;20.45;11.82;;;;;;;19.10;100.00;102096.19;2616184;36;20350;-70
2021/08/30 08:32:06;;;;;;;22.42;11.25;;;;;;;19.14;100.00;102093.97;2616810;36;20072;-68
2021/08/30 08:34:34;;;;;;;23.13;12.30;;;;;;;19.28;100.00;102101.56;2615729;36;20563;-70
2021/08/30 08:37:04;;;;;;;14.37;9.97;;;;;;;19.71;100.00;102096.97;2615529;36;20076;-68
2021/08/30 08:39:35;;;;;;;21.02;10.63;;;;;;;19.71;100.00;102096.97;2616593;36;20295;-70
2021/08/30 08:42:03;;;;;;;21.65;10.55;;;;;;;19.83;100.00;102094.81;2616769;36;20031;-68
2021/08/30 08:44:32;;;;;;;18.13;10.25;;;;;;;20.11;100.00;102089.91;2615254;36;20080;-68
2021/08/30 08:47:01;;;;;;;16.15;9.93;;;;;;;20.21;100.00;102095.19;2616718;31;20522;-68
2021/08/30 08:49:29;;;;;;;12.63;9.68;;;;;;;20.57;100.00;102094.00;2616838;36;20047;-69
2021/08/30 08:52:00;;;;;;;13.50;9.38;;;;;;;20.61;100.00;102088.03;2615805;36;20070;-67
2021/08/30 08:54:29;;;;;;;16.10;9.55;;;;;;;20.42;100.00;102082.88;2616979;31;20030;-67
2021/08/30 08:57:02;;;;;;;17.70;9.70;;;;;;;20.15;100.00;102086.81;2616019;36;20154;-68
2021/08/30 08:59:31;;;;;;;14.48;9.13;;;;;;;20.41;100.00;102092.13;2617711;31;20509;-70
2021/08/30 09:02:00;;;;;;;21.05;10.40;;;;;;;20.51;100.00;102091.94;2617911;36;20073;-68
2021/08/30 09:04:33;;;;;;;16.83;9.90;;;;;;;20.85;100.00;102082.69;2614170;36;20776;-69
2021/08/30 09:07:12;;;;;;;17.70;9.60;;;;;;;21.12;100.00;102085.00;2616909;36;20035;-69
2021/08/30 09:09:42;;;;;;;15.27;8.93;;;;;;;21.17;100.00;102077.16;2615646;36;20049;-69
2021/08/30 09:12:23;;;;;;;16.42;9.55;;;;;;;21.22;100.00;102076.59;2616371;31;20026;-68
2021/08/30 09:14:51;;;;;;;12.73;8.00;;;;;;;21.57;100.00;102077.16;2616999;36;20026;-67
2021/08/30 09:17:19;;;;;;;14.32;8.13;;;;;;;21.65;100.00;102081.75;2617429;36;20030;-68
2021/08/30 09:19:48;;;;;;;10.95;7.47;;;;;;;21.61;100.00;102069.44;2617117;36;20051;-69
2021/08/30 09:22:16;;;;;;;14.15;7.63;;;;;;;21.90;100.00;102071.47;2617202;36;20092;-69
2021/08/30 09:24:45;;;;;;;12.23;8.07;;;;;;;21.90;100.00;102073.38;2617567;36;20035;-68
2021/08/30 09:27:14;;;;;;;15.98;7.90;;;;;;;21.73;100.00;102075.34;2617359;36;20069;-70
2021/08/30 09:29:45;;;;;;;14.02;7.85;;;;;;;21.75;100.00;102089.75;2617712;36;20043;-70
2021/08/30 09:32:15;;;;;;;16.30;8.20;;;;;;;;;;2616398;36;20026;-70
2021/08/30 09:34:46;;;;;;;14.18;8.13;;;;;;;21.85;100.00;102082.16;2615477;36;20038;-70
2021/08/30 09:37:18;;;;;;;13.73;8.35;;;;;;;22.03;100.00;102088.19;2616542;36;20395;-71
2021/08/30 09:39:47;;;;;;;14.80;8.73;;;;;;;21.31;100.00;102089.22;2615863;36;20057;-68
2021/08/30 09:42:16;;;;;;;14.70;9.07;;;;;;;20.85;100.00;102083.56;2615406;36;20130;-69
2021/08/30 09:44:47;;;;;;;12.45;8.00;;;;;;;21.15;100.00;102090.13;2616276;36;20034;-69
2021/08/30 09:47:17;;;;;;;17.27;8.65;;;;;;;21.45;100.00;102087.66;2616020;36;20362;-69
2021/08/30 09:49:50;;;;;;;9.82;7.25;;;;;;;21.56;100.00;102086.41;2616140;31;20630;-68
2021/08/30 09:52:20;;;;;;;14.35;8.05;;;;;;;21.82;100.00;102074.25;2615358;36;20023;-70
2021/08/30 09:54:48;;;;;;;12.43;8.10;;;;;;;21.61;100.00;102083.13;2614785;36;20121;-68
2021/08/30 09:57:17;;;;;;;10.95;7.68;;;;;;;21.44;100.00;102074.13;2614349;36;20076;-68
2021/08/30 09:59:49;;;;;;;14.90;7.88;;;;;;;21.41;100.00;102069.84;2614533;36;20034;-67
2021/08/30 10:02:18;;;;;;;10.85;6.85;;;;;;;21.53;100.00;102081.28;2614146;31;20061;-69
2021/08/30 10:04:47;;;;;;;11.98;7.03;;;;;;;21.42;100.00;102073.44;2614965;36;20023;-67
2021/08/30 10:07:16;;;;;;;13.45;7.28;;;;;;;21.48;100.00;102078.19;2615661;36;20034;-69
2021/08/30 10:09:46;;;;;;;12.50;8.07;;;;;;;21.35;100.00;102067.84;2614498;36;20133;-68
2021/08/30 10:12:14;;;;;;;10.82;7.22;;;;;;;21.18;100.00;102077.97;2616877;31;20096;-69
2021/08/30 10:14:42;;;;;;;10.60;7.82;;;;;;;21.42;100.00;102062.47;2616275;36;20547;-69
2021/08/30 10:17:13;;;;;;;13.35;7.55;;;;;;;21.35;100.00;102063.19;2616633;36;20118;-69
2021/08/30 10:19:42;;;;;;;12.20;7.15;;;;;;;21.38;100.00;102066.59;2616829;36;20085;-68
2021/08/30 10:22:19;;;;;;;12.30;7.05;;;;;;;21.73;100.00;102064.41;2616171;36;20025;-72
2021/08/30 10:24:48;;;;;;;12.02;6.63;;;;;;;21.90;100.00;102057.78;2615635;36;20027;-68
2021/08/30 10:27:18;;;;;;;9.80;6.53;;;;;;;21.73;100.00;102069.88;2616969;36;20085;-68
2021/08/30 10:29:46;;;;;;;10.80;6.40;;;;;;;21.86;100.00;102076.47;2617176;36;20129;-67
2021/08/30 10:32:30;;;;;;;10.20;6.05;;;;;;;21.86;100.00;102064.66;2616966;36;20185;-70
2021/08/30 10:34:58;;;;;;;9.38;6.10;;;;;;;21.86;100.00;102064.66;2612777;36;20608;-69
2021/08/30 10:37:27;;;;;;;9.80;6.05;;;;;;;21.76;100.00;102061.28;2614877;36;20038;-67
2021/08/30 10:39:55;;;;;;;9.82;5.43;;;;;;;22.22;100.00;102059.41;2616477;31;20542;-70
2021/08/30 10:42:23;;;;;;;9.23;6.07;;;;;;;22.36;100.00;102063.28;2617100;36;20597;-71
2021/08/30 10:44:53;;;;;;;8.02;5.40;;;;;;;22.86;100.00;102066.38;2617281;36;20080;-68
2021/08/30 10:47:25;;;;;;;9.43;6.18;;;;;;;22.81;100.00;102059.75;2616868;36;20129;-69
2021/08/30 10:49:55;;;;;;;13.35;6.07;;;;;;;22.79;100.00;102059.94;2617037;36;20038;-69
2021/08/30 10:52:23;;;;;;;12.20;5.47;;;;;;;23.03;100.00;102056.06;2616499;36;20069;-70
2021/08/30 10:54:53;;;;;;;7.80;5.78;;;;;;;22.97;100.00;102056.81;2617026;36;20050;-68
2021/08/30 10:57:33;;;;;;;9.48;5.50;;;;;;;22.66;100.00;102056.97;2617101;36;20040;-68
2021/08/30 11:00:01;;;;;;;8.15;5.63;;;;;;;22.52;100.00;102053.19;2617604;31;20451;-70
2021/08/30 11:02:47;;;;;;;7.30;5.90;;;;;;;22.78;100.00;102063.72;2617308;36;20061;-69
2021/08/30 11:05:15;;;;;;;9.63;6.05;;;;;;;22.47;100.00;102059.22;2616603;36;20077;-68
2021/08/30 11:07:44;;;;;;;9.73;5.68;;;;;;;22.27;100.00;102064.34;2616332;36;20072;-68
2021/08/30 11:10:12;;;;;;;8.65;6.03;;;;;;;22.26;100.00;102062.66;2616562;36;20129;-69
2021/08/30 11:12:43;;;;;;;9.60;6.50;;;;;;;22.16;100.00;102062.06;2616301;36;20106;-68
2021/08/30 11:15:12;;;;;;;14.02;6.97;;;;;;;22.13;100.00;102059.66;2616437;36;20077;-67
2021/08/30 11:17:43;;;;;;;9.93;6.85;;;;;;;22.11;100.00;102059.00;2617056;36;20023;-68
2021/08/30 11:20:17;;;;;;;7.95;5.82;;;;;;;22.21;100.00;102048.63;2616338;36;20551;-69
2021/08/30 11:22:45;;;;;;;7.88;5.40;;;;;;;22.57;100.00;102059.81;2617436;31;20500;-70
2021/08/30 11:25:14;;;;;;;6.90;6.15;;;;;;;22.36;100.00;102051.44;2615965;36;20030;-69
2021/08/30 11:27:42;;;;;;;8.68;6.32;;;;;;;22.09;100.00;102056.44;2616001;36;20061;-69
2021/08/30 11:30:13;;;;;;;10.63;6.25;;;;;;;21.45;100.00;102045.69;2616613;36;20161;-68
2021/08/30 11:32:44;;;;;;;12.30;6.47;;;;;;;21.64;100.00;102058.97;2615720;36;20143;-70
2021/08/30 11:35:16;;;;;;;7.75;5.63;;;;;;;21.83;100.00;102052.19;2615419;36;20022;-67
2021/08/30 11:37:45;;;;;;;7.05;5.80;;;;;;;22.12;100.00;102057.97;2616208;36;20035;-68
2021/08/30 11:40:15;;;;;;;8.50;5.32;;;;;;;22.40;100.00;102050.88;2616837;36;20125;-70
2021/08/30 11:42:43;;;;;;;8.45;6.45;;;;;;;22.84;100.00;102045.66;2616114;36;20433;-69
2021/08/30 11:45:14;;;;;;;8.05;5.40;;;;;;;22.95;100.00;102044.31;2617507;36;20149;-67
2021/08/30 11:47:47;;;;;;;7.55;5.63;;;;;;;23.22;100.00;102042.84;2617517;36;20081;-68
2021/08/30 11:50:16;;;;;;;6.80;5.22;;;;;;;22.84;100.00;102046.50;2617473;36;20096;-67
2021/08/30 11:52:44;;;;;;;10.48;5.28;;;;;;;23.14;100.00;102038.28;2617187;36;20126;-70
2021/08/30 11:55:14;;;;;;;7.57;5.55;;;;;;;23.15;100.00;102045.47;2616598;36;20555;-69
2021/08/30 11:57:46;;;;;;;9.30;5.80;;;;;;;23.09;100.00;102049.81;2616271;36;20457;-72
2021/08/30 12:00:21;;;;;;;6.50;5.15;;;;;;;22.96;100.00;102048.78;2617180;36;20061;-67
2021/08/30 12:02:53;;;;;;;7.93;4.82;;;;;;;22.89;100.00;102054.16;2618005;36;20430;-68
2021/08/30 12:05:22;;;;;;;8.50;5.30;;;;;;;23.14;100.00;102043.75;2617830;36;20058;-67
2021/08/30 12:07:54;;;;;;;7.68;5.07;;;;;;;23.21;100.00;102046.63;2618036;31;20122;-69
2021/08/30 12:10:24;;;;;;;6.65;4.90;;;;;;;23.34;100.00;102046.78;2617706;36;20118;-72
2021/08/30 12:13:07;;;;;;;9.02;5.90;;;;;;;23.47;100.00;102042.47;2617848;36;20050;-69
2021/08/30 12:15:38;;;;;;;10.43;5.45;;;;;;;23.36;100.00;102050.19;2617715;36;20035;-68
2021/08/30 12:18:09;;;;;;;8.80;5.82;;;;;;;23.30;100.00;102041.88;2617340;36;20023;-71
2021/08/30 12:20:41;;;;;;;7.75;5.30;;;;;;;23.34;100.00;102046.78;2617092;36;20530;-67
2021/08/30 12:23:11;;;;;;;9.02;5.63;;;;;;;22.95;100.00;102050.66;2615920;36;20065;-69
2021/08/30 12:25:40;;;;;;;8.35;5.38;;;;;;;22.64;100.00;102050.84;2615939;36;20172;-67
2021/08/30 12:28:12;;;;;;;8.15;5.15;;;;;;;22.69;100.00;102049.25;2615792;36;20089;-67
2021/08/30 12:30:42;;;;;;;7.68;5.15;;;;;;;23.09;100.00;102044.31;2615889;36;20038;-70
2021/08/30 12:33:16;;;;;;;6.75;5.00;;;;;;;23.47;100.00;102039.72;2616794;31;20061;-67
2021/08/30 12:35:47;;;;;;;7.97;4.65;;;;;;;23.58;100.00;102036.50;2616413;36;20542;-66